createdAt,value
2018-04-15T00:00:51.757Z,40.78
2018-04-15T00:03:20.933Z,41.50
2018-04-15T00:05:50.059Z,42.60
2018-04-15T00:08:19.183Z,40.85
2018-04-15T00:10:48.771Z,42.58
2018-04-15T00:13:18.017Z,41.58
2018-04-15T00:15:47.159Z,43.35
2018-04-15T00:18:16.686Z,42.42
2018-04-15T00:20:45.815Z,43.47
2018-04-15T00:23:14.942Z,44.22
2018-04-15T00:25:44.384Z,44.78
2018-04-15T00:28:13.497Z,42.72
2018-04-15T00:30:42.622Z,44.35
2018-04-15T00:33:12.116Z,42.92
2018-04-15T00:35:41.241Z,42.45
2018-04-15T00:38:10.362Z,44.08
2018-04-15T00:40:39.872Z,43.17
2018-04-15T00:43:09.108Z,44.45
2018-04-15T00:45:38.235Z,43.17
2018-04-15T00:48:07.365Z,42.97
2018-04-15T00:50:36.487Z,47.13
2018-04-15T00:53:05.609Z,42.62
2018-04-15T00:55:35.046Z,46.28
2018-04-15T00:58:04.161Z,46.53
2018-04-15T01:00:33.294Z,46.45
2018-04-15T01:03:02.459Z,47.45
2018-04-15T01:05:31.560Z,44.47
2018-04-15T01:08:00.675Z,46.45
2018-04-15T01:10:30.058Z,48.90
2018-04-15T01:12:59.180Z,47.45
2018-04-15T01:15:29.068Z,47.35
2018-04-15T01:17:58.231Z,49.67
2018-04-15T01:20:27.357Z,46.88
2018-04-15T01:22:56.477Z,50.67
2018-04-15T01:25:31.870Z,48.70
2018-04-15T01:28:01.214Z,50.83
2018-04-15T01:30:33.818Z,47.97
2018-04-15T01:33:03.053Z,51.03
2018-04-15T01:35:32.184Z,50.00
2018-04-15T01:38:01.376Z,46.33
2018-04-15T01:40:30.642Z,51.85
2018-04-15T01:42:59.777Z,49.67
2018-04-15T01:45:28.897Z,49.40
2018-04-15T01:47:58.013Z,49.45
2018-04-15T01:50:27.137Z,50.45
2018-04-15T01:52:56.277Z,46.65
2018-04-15T01:55:25.410Z,48.67
2018-04-15T01:57:54.545Z,49.08
2018-04-15T02:00:23.658Z,47.83
2018-04-15T02:02:52.782Z,49.40
2018-04-15T02:05:21.913Z,49.55
2018-04-15T02:07:51.025Z,45.53
2018-04-15T02:10:20.156Z,48.25
2018-04-15T02:12:49.585Z,47.95
2018-04-15T02:15:18.701Z,45.95
2018-04-15T02:17:47.879Z,49.28
2018-04-15T02:20:17.272Z,47.35
2018-04-15T02:22:46.519Z,48.00
2018-04-15T02:25:15.665Z,50.38
2018-04-15T02:27:45.188Z,48.10
2018-04-15T02:30:14.301Z,48.38
2018-04-15T02:32:43.426Z,49.10
2018-04-15T02:35:12.882Z,48.47
2018-04-15T02:37:42.009Z,49.83
2018-04-15T02:40:11.134Z,47.85
2018-04-15T02:42:40.277Z,48.50
2018-04-15T02:45:09.392Z,44.90
2018-04-15T02:47:38.519Z,47.58
2018-04-15T02:50:07.940Z,49.15
2018-04-15T02:52:37.052Z,46.95
2018-04-15T02:55:06.178Z,45.22
2018-04-15T02:57:35.306Z,46.17
2018-04-15T03:00:04.429Z,49.08
2018-04-15T03:02:33.549Z,49.13
2018-04-15T03:05:03.049Z,49.42
2018-04-15T03:07:32.179Z,46.67
2018-04-15T03:10:01.304Z,46.15
2018-04-15T03:12:30.436Z,47.80
2018-04-15T03:14:59.555Z,46.67
2018-04-15T03:17:28.664Z,49.53
2018-04-15T03:19:57.805Z,45.83
2018-04-15T03:22:26.928Z,46.28
2018-04-15T03:24:56.079Z,47.90
2018-04-15T03:27:25.208Z,47.30
2018-04-15T03:29:54.438Z,46.63
2018-04-15T03:32:23.562Z,49.90
2018-04-15T03:34:52.700Z,46.83
2018-04-15T03:37:21.834Z,51.28
2018-04-15T03:39:50.968Z,51.97
2018-04-15T03:42:20.114Z,49.80
2018-04-15T03:44:49.262Z,51.95
2018-04-15T03:47:18.406Z,54.65
2018-04-15T03:49:47.546Z,53.92
2018-04-15T03:52:16.680Z,52.25
2018-04-15T03:54:45.814Z,51.85
2018-04-15T03:57:15.265Z,53.90
2018-04-15T03:59:44.394Z,55.12
2018-04-15T04:02:13.528Z,56.03
2018-04-15T04:04:42.676Z,55.50
2018-04-15T04:07:11.897Z,54.20
2018-04-15T04:09:41.043Z,55.80
2018-04-15T04:12:10.451Z,57.17
2018-04-15T04:14:39.573Z,56.97
2018-04-15T04:17:08.705Z,58.60
2018-04-15T04:19:43.880Z,57.65
2018-04-15T04:22:18.779Z,60.85
2018-04-15T04:24:53.693Z,64.80
2018-04-15T04:27:22.806Z,61.95
2018-04-15T04:29:51.947Z,63.78
2018-04-15T04:32:21.341Z,66.47
2018-04-15T04:34:50.458Z,61.13
2018-04-15T04:37:19.587Z,61.85
2018-04-15T04:39:48.733Z,60.22
2018-04-15T04:42:17.862Z,66.80
2018-04-15T04:44:46.992Z,63.22
2018-04-15T04:47:16.426Z,63.63
2018-04-15T04:49:45.557Z,66.72
2018-04-15T04:52:14.680Z,68.28
2018-04-15T04:54:43.941Z,66.18
2018-04-15T04:57:13.063Z,67.62
2018-04-15T04:59:42.184Z,63.75
2018-04-15T05:02:11.703Z,63.30
2018-04-15T05:04:40.832Z,64.93
2018-04-15T05:07:09.958Z,65.25
2018-04-15T05:09:39.410Z,67.12
2018-04-15T05:12:08.521Z,70.00
2018-04-15T05:14:37.647Z,69.25
2018-04-15T05:17:06.823Z,71.05
2018-04-15T05:19:35.920Z,62.45
2018-04-15T05:22:05.050Z,69.85
2018-04-15T05:24:34.181Z,68.22
2018-04-15T05:27:03.295Z,73.57
2018-04-15T05:29:32.431Z,68.20
2018-04-15T05:32:01.568Z,68.93
2018-04-15T05:34:30.713Z,73.30
2018-04-15T05:36:59.879Z,64.75
2018-04-15T05:39:29.018Z,67.22
2018-04-15T05:41:58.138Z,66.55
2018-04-15T05:44:27.259Z,65.70
2018-04-15T05:46:56.753Z,68.00
2018-04-15T05:49:25.898Z,71.40
2018-04-15T05:51:55.009Z,70.37
2018-04-15T05:54:24.149Z,66.45
2018-04-15T05:56:53.297Z,63.50
2018-04-15T05:59:22.415Z,74.65
2018-04-15T06:01:52.069Z,71.62
2018-04-15T06:04:21.190Z,72.20
2018-04-15T06:06:50.305Z,78.00
2018-04-15T06:09:19.525Z,73.70
2018-04-15T06:11:48.654Z,66.35
2018-04-15T06:14:17.781Z,68.47
2018-04-15T06:16:47.226Z,63.92
2018-04-15T06:19:16.360Z,71.75
2018-04-15T06:21:45.494Z,69.53
2018-04-15T06:24:14.629Z,72.62
2018-04-15T06:26:43.765Z,74.05
2018-04-15T06:29:12.893Z,73.80
2018-04-15T06:31:42.446Z,69.53
2018-04-15T06:34:11.570Z,69.50
2018-04-15T06:36:40.730Z,70.78
2018-04-15T06:39:10.197Z,71.53
2018-04-15T06:41:39.314Z,69.32
2018-04-15T06:44:08.449Z,66.75
2018-04-15T06:46:37.893Z,68.37
2018-04-15T06:49:07.017Z,66.95
2018-04-15T06:51:36.151Z,69.25
2018-04-15T06:54:05.622Z,68.32
2018-04-15T06:56:34.760Z,68.22
2018-04-15T06:59:03.887Z,68.95
2018-04-15T07:01:33.051Z,66.80
2018-04-15T07:04:02.162Z,65.22
2018-04-15T07:06:31.278Z,67.40
2018-04-15T07:09:00.416Z,64.18
2018-04-15T07:11:29.541Z,68.05
2018-04-15T07:13:58.793Z,67.78
2018-04-15T07:16:27.963Z,68.00
2018-04-15T07:18:57.154Z,63.35
2018-04-15T07:21:26.322Z,56.78
2018-04-15T07:23:55.454Z,60.63
2018-04-15T07:26:24.580Z,57.25
2018-04-15T07:28:53.716Z,56.25
2018-04-15T07:31:22.850Z,59.33
2018-04-15T07:33:51.994Z,57.47
2018-04-15T07:36:21.164Z,53.40
2018-04-15T07:38:50.293Z,54.70
2018-04-15T07:41:19.417Z,50.97
2018-04-15T07:43:48.545Z,49.10
2018-04-15T07:46:19.075Z,52.33
2018-04-15T07:48:48.229Z,47.72
2018-04-15T07:51:17.365Z,44.20
2018-04-15T07:53:46.812Z,44.50
2018-04-15T07:56:15.987Z,40.45
2018-04-15T07:58:45.144Z,38.90
2018-04-15T08:01:14.639Z,39.72
2018-04-15T08:03:43.765Z,34.00
2018-04-15T08:06:12.905Z,38.10
2018-04-15T08:08:42.325Z,37.72
2018-04-15T08:11:11.560Z,35.30
2018-04-15T08:13:40.689Z,34.65
2018-04-15T08:16:10.949Z,36.95
2018-04-15T08:18:40.108Z,35.90
2018-04-15T08:21:09.232Z,36.67
2018-04-15T08:23:38.995Z,37.75
2018-04-15T08:26:08.141Z,36.28
2018-04-15T08:28:37.372Z,33.75
2018-04-15T08:31:06.539Z,31.40
2018-04-15T08:33:35.800Z,33.78
2018-04-15T08:36:05.068Z,31.80
2018-04-15T08:38:34.210Z,30.60
2018-04-15T08:41:03.337Z,32.30
2018-04-15T08:43:32.474Z,33.65
2018-04-15T08:46:01.954Z,31.67
2018-04-15T08:48:31.095Z,31.55
2018-04-15T08:51:00.218Z,32.67
2018-04-15T08:53:29.717Z,32.27
2018-04-15T08:55:58.856Z,30.50
2018-04-15T08:58:27.982Z,30.50
2018-04-15T09:00:57.412Z,30.53
2018-04-15T09:03:26.545Z,25.33
2018-04-15T09:05:55.666Z,28.57
2018-04-15T09:08:24.809Z,28.03
2018-04-15T09:10:54.557Z,31.10
2018-04-15T09:13:23.674Z,26.43
2018-04-15T09:15:53.117Z,25.33
2018-04-15T09:18:22.253Z,25.47
2018-04-15T09:20:51.374Z,25.53
2018-04-15T09:23:20.843Z,27.77
2018-04-15T09:25:49.941Z,25.70
2018-04-15T09:28:19.057Z,23.80
2018-04-15T09:30:53.904Z,26.10
2018-04-15T09:33:23.060Z,23.87
2018-04-15T09:35:52.201Z,23.10
2018-04-15T09:38:21.397Z,21.33
2018-04-15T09:40:50.518Z,21.07
2018-04-15T09:43:19.636Z,21.97
2018-04-15T09:45:50.109Z,24.00
2018-04-15T09:48:19.232Z,23.87
2018-04-15T09:50:48.361Z,22.17
2018-04-15T09:53:17.501Z,22.90
2018-04-15T09:55:46.625Z,19.00
2018-04-15T09:58:15.762Z,20.20
2018-04-15T10:00:47.534Z,21.97
2018-04-15T10:03:16.675Z,20.93
2018-04-15T10:05:45.803Z,22.47
2018-04-15T10:08:15.679Z,20.77
2018-04-15T10:10:44.813Z,18.30
2018-04-15T10:13:13.945Z,19.20
2018-04-15T10:15:43.090Z,20.33
2018-04-15T10:18:12.255Z,21.20
2018-04-15T10:20:41.490Z,21.10
2018-04-15T10:23:10.621Z,20.40
2018-04-15T10:25:39.777Z,21.57
2018-04-15T10:28:08.909Z,21.13
2018-04-15T10:30:38.341Z,19.67
2018-04-15T10:33:07.469Z,20.50
2018-04-15T10:35:36.613Z,20.23
2018-04-15T10:38:06.096Z,19.53
2018-04-15T10:40:35.276Z,20.40
2018-04-15T10:43:04.402Z,19.43
2018-04-15T10:45:33.838Z,16.80
2018-04-15T10:48:02.974Z,18.23
2018-04-15T10:50:32.111Z,16.60
2018-04-15T10:53:01.514Z,15.33
2018-04-15T10:55:30.639Z,15.73
2018-04-15T10:57:59.776Z,15.73
2018-04-15T11:00:28.927Z,15.40
2018-04-15T11:02:58.081Z,16.70
2018-04-15T11:05:27.209Z,16.63
2018-04-15T11:07:56.628Z,15.00
2018-04-15T11:10:25.774Z,16.57
2018-04-15T11:12:54.915Z,14.77
2018-04-15T11:15:24.419Z,14.80
2018-04-15T11:17:53.557Z,15.23
2018-04-15T11:20:22.680Z,15.53
2018-04-15T11:22:52.098Z,14.33
2018-04-15T11:25:21.213Z,15.57
2018-04-15T11:27:50.341Z,15.77
2018-04-15T11:30:19.482Z,15.60
2018-04-15T11:32:48.666Z,15.20
2018-04-15T11:35:17.792Z,17.03
2018-04-15T11:37:47.018Z,15.40
2018-04-15T11:40:16.146Z,16.67
2018-04-15T11:42:45.274Z,16.27
2018-04-15T11:45:14.534Z,16.17
2018-04-15T11:47:43.667Z,17.00
2018-04-15T11:50:12.782Z,17.97
2018-04-15T11:52:41.944Z,16.70
2018-04-15T11:55:11.068Z,15.83
2018-04-15T11:57:40.190Z,17.50
2018-04-15T12:00:09.330Z,16.63
2018-04-15T12:02:38.456Z,16.77
2018-04-15T12:05:07.593Z,17.87
2018-04-15T12:07:36.754Z,18.87
2018-04-15T12:10:05.965Z,19.80
2018-04-15T12:12:35.110Z,17.80
2018-04-15T12:15:04.489Z,19.40
2018-04-15T12:17:33.660Z,16.93
2018-04-15T12:20:02.795Z,17.67
2018-04-15T12:22:32.265Z,17.40
2018-04-15T12:25:01.392Z,15.97
2018-04-15T12:27:30.521Z,15.70
2018-04-15T12:29:59.920Z,16.53
2018-04-15T12:32:29.045Z,17.50
2018-04-15T12:34:58.177Z,17.00
2018-04-15T12:37:27.615Z,16.43
2018-04-15T12:39:56.748Z,16.10
2018-04-15T12:42:25.873Z,16.43
2018-04-15T12:44:55.008Z,16.63
2018-04-15T12:47:24.137Z,16.73
2018-04-15T12:49:53.272Z,18.50
2018-04-15T12:52:22.678Z,18.43
2018-04-15T12:54:51.797Z,18.30
2018-04-15T12:57:20.915Z,18.90
2018-04-15T12:59:50.398Z,18.70
2018-04-15T13:02:19.529Z,19.17
2018-04-15T13:04:48.658Z,17.47
2018-04-15T13:07:18.837Z,18.10
2018-04-15T13:09:47.958Z,19.10
2018-04-15T13:12:17.081Z,20.13
2018-04-15T13:14:46.330Z,20.90
2018-04-15T13:17:15.988Z,19.63
2018-04-15T13:19:45.107Z,21.23
2018-04-15T13:22:14.262Z,21.50
2018-04-15T13:24:43.392Z,20.37
2018-04-15T13:27:12.518Z,21.43
2018-04-15T13:29:41.674Z,21.50
2018-04-15T13:32:10.802Z,20.43
2018-04-15T13:34:39.945Z,18.87
2018-04-15T13:37:09.082Z,19.10
2018-04-15T13:39:38.201Z,20.10
2018-04-15T13:42:07.333Z,20.37
2018-04-15T13:44:36.470Z,17.63
2018-04-15T13:47:05.601Z,21.00
2018-04-15T13:49:34.898Z,19.20
2018-04-15T13:52:04.362Z,14.63
2018-04-15T13:54:33.585Z,12.43
2018-04-15T13:57:02.754Z,12.90
2018-04-15T13:59:32.204Z,13.13
2018-04-15T14:02:02.059Z,15.10
2018-04-15T14:04:31.210Z,13.37
2018-04-15T14:07:00.692Z,14.10
2018-04-15T14:09:29.809Z,15.00
2018-04-15T14:11:58.935Z,15.57
2018-04-15T14:14:28.095Z,15.47
2018-04-15T14:16:57.214Z,13.73
2018-04-15T14:19:26.389Z,13.10
2018-04-15T14:21:56.361Z,12.97
2018-04-15T14:24:25.727Z,10.00
2018-04-15T14:26:55.664Z,9.80
2018-04-15T14:29:26.806Z,8.53
2018-04-15T14:31:56.432Z,8.93
2018-04-15T14:34:25.642Z,8.30
2018-04-15T14:36:55.823Z,7.57
2018-04-15T14:39:24.959Z,7.30
2018-04-15T14:41:54.112Z,7.37
2018-04-15T14:44:23.256Z,7.30
2018-04-15T14:46:52.412Z,7.50
2018-04-15T14:49:21.534Z,7.00
2018-04-15T14:51:51.583Z,7.43
2018-04-15T14:54:20.719Z,6.57
2018-04-15T14:56:49.846Z,7.20
2018-04-15T14:59:19.247Z,6.73
2018-04-15T15:01:48.381Z,6.90
2018-04-15T15:04:17.518Z,6.90
2018-04-15T15:06:47.169Z,6.50
2018-04-15T15:09:16.294Z,6.03
2018-04-15T15:11:46.089Z,6.40
2018-04-15T15:14:15.214Z,5.80
2018-04-15T15:16:44.348Z,5.07
2018-04-15T15:19:13.500Z,5.70
2018-04-15T15:21:42.941Z,5.63
2018-04-15T15:24:13.905Z,7.10
2018-04-15T15:26:43.037Z,6.17
2018-04-15T15:29:12.153Z,6.50
2018-04-15T15:31:41.281Z,7.57
2018-04-15T15:34:10.770Z,6.57
2018-04-15T15:36:39.892Z,6.63
2018-04-15T15:39:09.009Z,7.43
2018-04-15T15:41:38.167Z,6.93
2018-04-15T15:44:07.311Z,6.73
2018-04-15T15:46:36.459Z,6.90
2018-04-15T15:49:05.953Z,6.40
2018-04-15T15:51:35.080Z,7.00
2018-04-15T15:54:04.988Z,6.90
2018-04-15T15:56:34.177Z,7.03
2018-04-15T15:59:03.297Z,7.20
2018-04-15T16:01:32.422Z,7.10
2018-04-15T16:04:01.854Z,7.57
2018-04-15T16:06:31.119Z,6.33
2018-04-15T16:09:00.266Z,6.10
2018-04-15T16:11:29.406Z,5.83
2018-04-15T16:13:59.207Z,6.17
2018-04-15T16:16:28.369Z,6.93
2018-04-15T16:18:57.506Z,6.57
2018-04-15T16:21:26.625Z,6.63
2018-04-15T16:23:55.749Z,6.60
2018-04-15T16:26:25.254Z,7.33
2018-04-15T16:28:54.385Z,7.30
2018-04-15T16:31:23.518Z,6.93
2018-04-15T16:33:52.661Z,6.90
2018-04-15T16:36:21.836Z,8.00
2018-04-15T16:38:51.053Z,7.73
2018-04-15T16:41:20.463Z,7.90
2018-04-15T16:43:49.639Z,7.07
2018-04-15T16:46:18.722Z,8.10
2018-04-15T16:48:47.906Z,7.57
2018-04-15T16:51:17.037Z,9.47
2018-04-15T16:53:46.169Z,9.23
2018-04-15T16:56:15.308Z,10.30
2018-04-15T16:58:44.444Z,9.83
2018-04-15T17:01:13.588Z,10.90
2018-04-15T17:03:42.822Z,11.90
2018-04-15T17:06:11.953Z,12.35
2018-04-15T17:08:41.090Z,12.37
2018-04-15T17:11:10.300Z,11.93
2018-04-15T17:13:39.506Z,12.30
2018-04-15T17:16:08.704Z,14.07
2018-04-15T17:18:37.804Z,11.50
2018-04-15T17:21:06.944Z,11.40
2018-04-15T17:23:36.117Z,10.82
2018-04-15T17:26:05.606Z,11.65
2018-04-15T17:28:34.744Z,11.98
2018-04-15T17:31:03.883Z,11.90
2018-04-15T17:33:33.332Z,11.15
2018-04-15T17:36:02.513Z,12.32
2018-04-15T17:38:32.030Z,12.30
2018-04-15T17:41:01.184Z,13.13
2018-04-15T17:43:30.313Z,14.25
2018-04-15T17:45:59.461Z,12.90
2018-04-15T17:48:28.949Z,12.82
2018-04-15T17:50:58.101Z,13.60
2018-04-15T17:53:27.996Z,13.93
2018-04-15T17:55:57.466Z,13.95
2018-04-15T17:58:26.630Z,14.90
2018-04-15T18:00:55.808Z,13.15
2018-04-15T18:03:24.984Z,15.25
2018-04-15T18:05:54.114Z,17.40
2018-04-15T18:08:23.266Z,14.65
2018-04-15T18:10:52.757Z,17.10
2018-04-15T18:13:21.910Z,16.90
2018-04-15T18:15:51.111Z,16.50
2018-04-15T18:18:20.578Z,16.37
2018-04-15T18:20:49.722Z,15.88
2018-04-15T18:23:18.858Z,15.02
2018-04-15T18:25:48.939Z,16.98
2018-04-15T18:28:18.066Z,16.08
2018-04-15T18:30:47.216Z,16.52
2018-04-15T18:33:16.645Z,14.90
2018-04-15T18:35:45.815Z,18.45
2018-04-15T18:38:14.945Z,17.17
2018-04-15T18:40:44.455Z,16.80
2018-04-15T18:43:13.595Z,16.50
2018-04-15T18:45:42.722Z,18.45
2018-04-15T18:48:12.241Z,17.95
2018-04-15T18:50:41.374Z,19.73
2018-04-15T18:53:10.520Z,18.40
2018-04-15T18:55:40.061Z,20.92
2018-04-15T18:58:09.253Z,21.40
2018-04-15T19:00:38.421Z,23.23
2018-04-15T19:03:07.856Z,20.75
2018-04-15T19:05:36.995Z,19.70
2018-04-15T19:08:06.137Z,17.92
2018-04-15T19:10:35.310Z,17.80
2018-04-15T19:13:04.460Z,18.85
2018-04-15T19:15:33.584Z,17.77
2018-04-15T19:18:02.827Z,15.68
2018-04-15T19:20:32.036Z,15.55
2018-04-15T19:23:01.186Z,16.40
2018-04-15T19:25:30.348Z,16.60
2018-04-15T19:27:59.517Z,16.02
2018-04-15T19:30:28.666Z,16.23
2018-04-15T19:32:57.824Z,16.58
2018-04-15T19:35:26.957Z,17.55
2018-04-15T19:37:56.078Z,17.00
2018-04-15T19:40:25.219Z,18.05
2018-04-15T19:42:54.347Z,19.02
2018-04-15T19:45:23.495Z,18.15
2018-04-15T19:47:52.650Z,19.05
2018-04-15T19:50:21.778Z,18.80
2018-04-15T19:52:50.902Z,19.27
2018-04-15T19:55:20.066Z,18.83
2018-04-15T19:57:49.209Z,18.55
2018-04-15T20:00:18.348Z,19.42
2018-04-15T20:02:47.496Z,19.17
2018-04-15T20:05:16.648Z,19.45
2018-04-15T20:07:45.790Z,19.50
2018-04-15T20:10:14.967Z,19.90
2018-04-15T20:12:45.000Z,18.58
2018-04-15T20:15:14.153Z,18.67
2018-04-15T20:17:43.302Z,19.35
2018-04-15T20:20:12.432Z,19.55
2018-04-15T20:22:41.558Z,18.92
2018-04-15T20:25:10.776Z,19.80
2018-04-15T20:27:39.894Z,19.75
2018-04-15T20:30:09.021Z,19.60
2018-04-15T20:32:38.163Z,21.50
2018-04-15T20:35:07.291Z,20.45
2018-04-15T20:37:36.426Z,21.40
2018-04-15T20:40:05.569Z,21.90
2018-04-15T20:42:34.691Z,21.12
2018-04-15T20:45:03.833Z,23.20
2018-04-15T20:47:33.043Z,23.08
2018-04-15T20:50:02.191Z,22.90
2018-04-15T20:52:31.349Z,24.00
2018-04-15T20:55:00.783Z,23.12
2018-04-15T20:57:29.930Z,24.55
2018-04-15T20:59:59.044Z,23.33
2018-04-15T21:02:28.190Z,23.30
2018-04-15T21:04:57.312Z,24.83
2018-04-15T21:07:26.434Z,25.15
2018-04-15T21:09:55.616Z,25.45
2018-04-15T21:12:24.732Z,26.45
2018-04-15T21:14:53.958Z,26.83
2018-04-15T21:17:23.101Z,26.35
2018-04-15T21:19:52.329Z,28.10
2018-04-15T21:22:21.477Z,28.45
2018-04-15T21:24:50.751Z,28.15
2018-04-15T21:27:19.890Z,28.75
2018-04-15T21:29:49.010Z,29.10
2018-04-15T21:32:18.553Z,28.15
2018-04-15T21:34:47.796Z,29.92
2018-04-15T21:37:16.935Z,27.80
2018-04-15T21:39:46.089Z,29.23
2018-04-15T21:42:15.216Z,29.63
2018-04-15T21:44:44.395Z,27.80
2018-04-15T21:47:13.549Z,28.73
2018-04-15T21:49:42.690Z,27.52
2018-04-15T21:52:11.821Z,26.58
2018-04-15T21:54:41.225Z,25.00
2018-04-15T21:57:10.369Z,22.77
2018-04-15T21:59:39.500Z,22.37
2018-04-15T22:02:08.936Z,24.65
2018-04-15T22:04:38.160Z,23.23
2018-04-15T22:07:07.297Z,22.90
2018-04-15T22:09:36.724Z,21.27
2018-04-15T22:12:11.679Z,21.02
2018-04-15T22:14:41.214Z,17.33
2018-04-15T22:17:10.320Z,19.05
2018-04-15T22:19:39.441Z,16.65
2018-04-15T22:22:08.861Z,14.68
2018-04-15T22:24:38.086Z,14.52
2018-04-15T22:27:07.258Z,13.90
2018-04-15T22:29:36.761Z,13.20
2018-04-15T22:32:05.919Z,13.70
2018-04-15T22:34:35.036Z,11.95
2018-04-15T22:37:04.174Z,12.25
2018-04-15T22:39:33.317Z,10.65
2018-04-15T22:42:02.444Z,9.63
2018-04-15T22:44:31.607Z,8.38
2018-04-15T22:47:00.757Z,6.82
2018-04-15T22:49:29.903Z,5.75
2018-04-15T22:51:59.313Z,5.20
2018-04-15T22:54:28.657Z,4.65
2018-04-15T22:57:03.590Z,3.30
2018-04-15T22:59:32.709Z,3.40
2018-04-15T23:02:01.828Z,3.20
2018-04-15T23:04:30.982Z,3.03
2018-04-15T23:07:00.096Z,3.00
2018-04-15T23:09:29.215Z,3.65
2018-04-15T23:11:58.377Z,3.50
2018-04-15T23:14:27.489Z,3.60
2018-04-15T23:16:56.610Z,4.35
2018-04-15T23:19:26.031Z,5.47
2018-04-15T23:21:55.147Z,6.30
2018-04-15T23:24:24.278Z,7.00
2018-04-15T23:26:53.699Z,8.35
2018-04-15T23:29:22.814Z,7.35
2018-04-15T23:31:51.937Z,8.30
2018-04-15T23:34:21.075Z,9.02
2018-04-15T23:36:50.405Z,9.35
2018-04-15T23:39:19.533Z,10.18
2018-04-15T23:41:49.006Z,10.88
2018-04-15T23:44:18.185Z,11.80
2018-04-15T23:46:47.298Z,11.50
2018-04-15T23:49:16.717Z,12.95
2018-04-15T23:51:45.835Z,13.43
2018-04-15T23:54:14.953Z,12.95
2018-04-15T23:56:59.653Z,13.18
2018-04-15T23:59:41.544Z,13.18
